• Join FlightAware (Why Join?)
  • Login
  • US Flag 
09:07AM EDT


 

Airport Tracker/Info


-or-


 

Live Flight TrackerFlight Track Log ✈ FFT773 ✈ 03-May-2012 ✈ KDEN - KLAS

Flight Track Log - Related Links

Times and Time Zones

All times are in EDT time to prevent confusion due to time zone crossing. See the FFT773 flight status page for this flight to view local times or setup timezone preferences in your user account.

Time Position Orientation Groundspeed Altitude Reporting Facility
EDT Latitude Longitude Course Direction KTS MPH feet Rate Location/Type
09:53PM 39.8213 -104.6571 256° West  Level FlightAware Approximate
09:54PM 39.8000 -104.7667 282° West 270 311 8,500  Level Denver TRACON
09:55PM 39.8167 -104.8667 261° West 286 329 11,000 2,220 Climbing Denver TRACON
09:56PM 39.8031 -104.9786 258° West 297 342 13,000 2,400 Climbing Denver Center
09:57PM 39.7856 -105.0897 258° West 312 359 15,900 2,520 Climbing Denver Center
09:58PM 39.7681 -105.1981 259° West 317 365 18,100 1,740 Climbing Denver Center
09:59PM 39.7506 -105.3144 259° West 323 372 19,400 1,200 Climbing Denver Center
10:00PM 39.7308 -105.4500 258° West 362 417 20,500 1,920 Climbing Denver Center
10:01PM 39.7092 -105.5825 257° West 375 432 23,300 1,980 Climbing Denver Center
10:02PM 39.6850 -105.7150 255° West 375 432 24,500 1,200 Climbing Denver Center
10:03PM 39.6567 -105.8503 256° West 382 440 25,700 1,080 Climbing Denver Center
10:04PM 39.6281 -105.9961 255° West 407 468 26,700 900 Climbing Denver Center
10:05PM 39.6014 -106.1256 257° West 418 481 27,500 780 Climbing Denver Center
10:06PM 39.5728 -106.2819 255° West 430 495 28,300 1,140 Climbing Denver Center
10:07PM 39.5414 -106.4328 253° West 435 501 29,800 1,200 Climbing Denver Center
10:08PM 39.5019 -106.6025 254° West 445 512 30,800 1,020 Climbing Denver Center
10:09PM 39.4703 -106.7422 255° West 445 512 31,900 1,320 Climbing Denver Center
10:10PM 39.4386 -106.8900 249° West 438 504 33,500 1,440 Climbing Denver Center
10:11PM 39.3919 -107.0456 250° West 433 498 34,800 1,080 Climbing Denver Center
10:12PM 39.3517 -107.1875 249° West 426 490 35,700 840 Climbing Denver Center
10:13PM 39.3131 -107.3158 249° West 431 496 36,500 720 Climbing Denver Center
10:14PM 39.2703 -107.4575 250° West 431 496 37,200 720 Climbing Denver Center
10:15PM 39.2250 -107.6150 249° West 431 496 38,000 360 Climbing Denver Center
10:16PM 39.1819 -107.7561 249° West 431 496 38,000  Level Denver Center
10:17PM 39.1383 -107.9028 248° West 431 496 38,000  Level Denver Center
10:18PM 39.0992 -108.0275 249° West 431 496 38,000  Level Denver Center
10:19PM 39.0511 -108.1869 248° West 436 502 38,000  Level Denver Center
10:20PM 39.0072 -108.3275 249° West 436 502 38,000  Level Denver Center
10:21PM 38.9653 -108.4653 248° West 431 496 38,000  Level Denver Center
10:22PM 38.9256 -108.5894 249° West 431 496 38,000  Level Denver Center
10:23PM 38.8833 -108.7269 248° West 431 496 38,000  Level Denver Center
10:24PM 38.8364 -108.8775 248° West 425 489 38,000  Level Denver Center
10:25PM 38.7917 -109.0169 248° West 420 483 38,000  Level Denver Center
10:26PM 38.7533 -109.1408 248° West 420 483 38,000  Level Denver Center
10:27PM 38.7106 -109.2747 248° West 420 483 38,000  Level Denver Center
10:28PM 38.6628 -109.4272 248° West 420 483 38,000  Level Denver Center
10:29PM 38.6422 -109.4919 247° West 414 476 38,000  Level Salt Lake Center
10:30PM 38.5928 -109.6439 248° West 413 475 38,000  Level Salt Lake Center
10:31PM 38.5506 -109.7750 248° West 416 479 38,000  Level Salt Lake Center
10:32PM 38.5011 -109.9283 247° West 417 480 38,000  Level Salt Lake Center
10:33PM 38.4586 -110.0578 247° West 415 478 38,000 -360 Level Salt Lake Center
10:34PM 38.4167 -110.1847 247° West 409 471 37,300 -900 Descending Salt Lake Center
10:35PM 38.3675 -110.3328 247° West 407 468 36,200 -660 Descending Salt Lake Center
10:36PM 38.3228 -110.4650 247° West 418 481 36,000 -120 Descending Salt Lake Center
10:37PM 38.2725 -110.6178 247° West 419 482 36,000  Level Salt Lake Center
10:38PM 38.2297 -110.7467 240° Southwest 415 478 36,000 -540 Level Salt Lake Center
10:39PM 38.1639 -110.8894 238° Southwest 422 486 34,900 -960 Descending Salt Lake Center
10:40PM 38.1125 -110.9947 239° Southwest 425 489 34,100 -1,020 Descending Salt Lake Center
10:41PM 38.0383 -111.1503 239° Southwest 423 487 32,900 -1,080 Descending Salt Lake Center
10:42PM 37.9756 -111.2817 239° Southwest 426 490 32,000 -480 Descending Salt Lake Center
10:43PM 37.9111 -111.4150 240° Southwest 432 497 32,000  Level Salt Lake Center
10:44PM 37.8503 -111.5483 238° Southwest 433 498 32,000  Level Salt Lake Center
10:45PM 37.7858 -111.6794 238° Southwest 432 497 32,000  Level Salt Lake Center
10:46PM 37.7208 -111.8083 238° Southwest 430 495 32,000  Level Salt Lake Center
10:47PM 37.6569 -111.9389 238° Southwest 430 495 32,000  Level Salt Lake Center
10:48PM 37.5936 -112.0686 238° Southwest 428 493 32,000  Level Salt Lake Center
10:49PM 37.5297 -112.1978 238° Southwest 426 490 32,000  Level Salt Lake Center
10:50PM 37.4669 -112.3261 238° Southwest 425 489 32,000  Level Salt Lake Center
10:51PM 37.4025 -112.4567 238° Southwest 427 491 32,000 -360 Level Salt Lake Center
10:52PM 37.3389 -112.5850 247° West 424 488 31,300 -840 Descending Salt Lake Center
10:53PM 37.2950 -112.7150 278° West 407 468 30,300 -1,020 Descending Salt Lake Center
10:54PM 37.3097 -112.8536 280° West 393 452 29,300 -1,080 Descending Salt Lake Center
10:55PM 37.3281 -112.9903 280° West 389 448 28,200 -1,080 Descending Salt Lake Center
10:56PM 37.3472 -113.1247 254° West 385 443 27,200 -1,020 Descending Salt Lake Center
10:57PM 37.3194 -113.2478 223° Southwest 379 436 26,200 -1,080 Descending Salt Lake Center
10:58PM 37.2397 -113.3411 222° Southwest 389 448 25,100 -1,080 Descending Salt Lake Center
10:59PM 37.1606 -113.4300 223° Southwest 379 436 24,100 -960 Descending Salt Lake Center
11:01PM 37.0669 -113.5378 222° Southwest 374 430 22,900 -960 Descending Los Angeles Center
11:02PM 36.9936 -113.6208 221° Southwest 369 425 21,900 -1,020 Descending Los Angeles Center
11:03PM 36.9200 -113.7011 223° Southwest 364 419 20,900 -1,020 Descending Los Angeles Center
11:04PM 36.8508 -113.7808 222° Southwest 353 406 19,900 -1,080 Descending Los Angeles Center
11:05PM 36.7711 -113.8714 223° Southwest 353 406 18,800 -1,200 Descending Los Angeles Center
11:06PM 36.7036 -113.9486 221° Southwest 353 406 17,600 -1,320 Descending Los Angeles Center
11:07PM 36.6342 -114.0228 226° Southwest 348 400 16,300 -1,260 Descending Los Angeles Center
11:08PM 36.5686 -114.1072 241° Southwest 348 400 15,100 -1,200 Descending Los Angeles Center
11:09PM 36.5244 -114.2067 237° Southwest 334 384 13,900 -1,200 Descending Los Angeles Center
11:09PM 36.4819 -114.2878 241° Southwest 326 375 12,900 -1,140 Descending Los Angeles Center
11:10PM 36.4597 -114.3372 244° Southwest 320 368 12,400 -660 Descending Los Angeles Center
11:11PM 36.4417 -114.3842 239° Southwest 323 372 12,200 -360 Descending Los Angeles Center
11:12PM 36.4011 -114.4675 199° South 301 346 11,900 -300 Descending Los Angeles Center
11:13PM 36.3325 -114.4972 168° South 272 313 11,700 -300 Descending Los Angeles Center
11:13PM 36.2886 -114.4853 164° South 270 311 11,500 -420 Descending Los Angeles Center
11:14PM 36.2614 -114.4756 169° South 243 280 11,300 -540 Descending Los Angeles Center
11:14PM 36.2236 -114.4661 163° South 235 270 11,000 -420 Descending Los Angeles Center
11:15PM 36.1986 -114.4564 196° South 238 274 10,900 -120 Descending Los Angeles Center
11:15PM 36.1528 -114.4728 249° West 274 315 10,900  Level Los Angeles Center
11:16PM 36.1308 -114.5450 248° West 226 260 10,900 -600 Level Los Angeles Center
11:17PM 36.1008 -114.6356 250° West 228 262 9,600 -1,080 Descending Los Angeles Center
11:18PM 36.0828 -114.6978 257° West 225 259 8,600 -1,080 Descending Los Angeles Center
11:19PM 36.0708 -114.7622 274° West 220 253 7,700 -1,200 Descending Los Angeles Center
11:20PM 36.0761 -114.8572 265° West 231 266 6,300 -1,320 Descending Los Angeles Center
11:21PM 36.0706 -114.9342 273° West 225 259 5,000 -1,260 Descending Los Angeles Center
11:22PM 36.0733 -114.9986 271° West 204 235 3,900 -1,020 Descending Los Angeles Center
11:23PM 36.0739 -115.0575 270° West 169 194 3,100 -780 Descending Los Angeles Center
11:24PM 36.0742 -115.1089 271° West 136 157 2,400 -480 Descending Los Angeles Center
11:26PM 36.0744 -115.1450 282° West 134 154 2,100 -180 Descending Los Angeles Center
11:27PM 36.0767 -115.1578 90° East 60 69 2,100 -60 Level Los Angeles Center
11:28PM 36.0767 -115.1397 64° Northeast 44 51 2,000 -60 Descending Los Angeles Center
11:29PM 36.0786 -115.1347 64° Northeast 14 16 2,000  Level Los Angeles Center